Terminal Aerodrome Forecast
Issued by NWS Jackson, KY

Home | Current Version | Previous Version | Text Only | Print | Product List | Glossary On
Versions: 1 2 3 4 5 6 7 8 9 10 11 12 13 14 15 16 17
000
FTUS43 KJKL 220538
TAFJKL
TAF
KJKL 220538Z 2206/2306 00000KT P6SM SCT250
     FM221500 21004KT P6SM VCTS BKN060CB BKN120
     FM222200 17004KT 5SM -SHRA BR VCTS BKN020 OVC030CB
     FM230100 16004KT P6SM OVC015
     FM230300 VRB03KT P6SM OVC025=

USA.gov is the U.S. government's official web portal to all federal, state and local government web resources and services.